Time;durP1;ratioP1;P1;durP2;ratioP2;P2;SDS_P1;SDS_P2;PMS_P1;PMS_P2;Temp;Humidity;BMP_temperature;BMP_pressure;BME280_temperature;BME280_humidity;BME280_pressure;Samples;Min_cycle;Max_cycle;Signal;HPM_P1;HPM_P2
2020/12/02 00:00:18;;;;;;;;;;;;;;;;;;5038340;28;20783;-89
2020/12/02 00:02:44;;;;;;;;;;;;;;;;;;5038404;28;20413;-89
2020/12/02 00:05:11;;;;;;;;;;;;;;;;;;5036582;28;20391;-89
2020/12/02 00:07:37;;;;;;;;;;;;;;;;;;5036190;28;20395;-88
2020/12/02 00:10:04;;;;;;;;;;;;;;;;;;5030807;28;20410;-88
2020/12/02 00:12:30;;;;;;;;;;;;;;;;;;5036681;28;20403;-90
2020/12/02 00:14:56;;;;;;;;;;;;;;;;;;5036173;28;20402;-88
2020/12/02 00:17:23;;;;;;;;;;;;;;;;;;5037797;28;20445;-89
2020/12/02 00:19:49;;;;;;;;;;;;;;;;;;5037212;28;20406;-88
2020/12/02 00:22:16;;;;;;;;;;;;;;;;;;5038363;28;20402;-88
2020/12/02 00:24:42;;;;;;;;;;;;;;;;;;5039995;28;20860;-89
2020/12/02 00:27:09;;;;;;;;;;;;;;;;;;5031531;28;20393;-87
2020/12/02 00:29:35;;;;;;;;;;;;;;;;;;5051786;28;20391;-88
2020/12/02 00:32:01;;;;;;;;;;;;;;;;;;5056744;28;20380;-86
2020/12/02 00:34:28;;;;;;;;;;;;;;;;;;5058828;28;20415;-86
2020/12/02 00:36:54;;;;;;;;;;;;;;;;;;5057842;28;20387;-87
2020/12/02 00:39:21;;;;;;;;;;;;;;;;;;5058129;28;20378;-86
2020/12/02 00:41:47;;;;;;;;;;;;;;;;;;5058934;28;20434;-86
2020/12/02 00:44:13;;;;;;;;;;;;;;;;;;5058922;28;20374;-86
2020/12/02 00:46:40;;;;;;;;;;;;;;;;;;5058377;28;20374;-86
2020/12/02 00:49:06;;;;;;;;;;;;;;;;;;5058380;28;20409;-86
2020/12/02 00:51:33;;;;;;;;;;;;;;;;;;5054380;28;20425;-88
2020/12/02 00:53:59;;;;;;;;;;;;;;;;;;5040033;28;20413;-87
2020/12/02 00:56:26;;;;;;;;;;;;;;;;;;5038381;28;20839;-88
2020/12/02 00:58:52;;;;;;;;;;;;;;;;;;5039522;28;20881;-87
2020/12/02 01:01:19;;;;;;;;;;;;;;;;;;5040985;28;20387;-88
2020/12/02 01:03:45;;;;;;;;;;;;;;;;;;5043572;28;20421;-88
2020/12/02 01:06:11;;;;;;;;;;;;;;;;;;5048633;28;20829;-88
2020/12/02 01:08:38;;;;;;;;;;;;;;;;;;5061569;28;20473;-88
2020/12/02 01:11:04;;;;;;;;;;;;;;;;;;5056054;28;20771;-87
2020/12/02 01:13:31;;;;;;;;;;;;;;;;;;5058892;28;20461;-88
2020/12/02 01:15:57;;;;;;;;;;;;;;;;;;5055715;28;20442;-86
2020/12/02 01:18:24;;;;;;;;;;;;;;;;;;5042519;28;20415;-89
2020/12/02 01:20:50;;;;;;;;;;;;;;;;;;5035557;28;20405;-87
2020/12/02 01:23:17;;;;;;;;;;;;;;;;;;5027284;28;20417;-87
2020/12/02 01:25:43;;;;;;;;;;;;;;;;;;5035772;28;20386;-87
2020/12/02 01:28:09;;;;;;;;;;;;;;;;;;5034874;28;20382;-88
2020/12/02 01:30:36;;;;;;;;;;;;;;;;;;5035534;28;20425;-89
2020/12/02 01:33:02;;;;;;;;;;;;;;;;;;5035265;28;20393;-88
2020/12/02 01:35:29;;;;;;;;;;;;;;;;;;5021829;28;20748;-89
2020/12/02 01:37:55;;;;;;;;;;;;;;;;;;5034416;28;20389;-88
2020/12/02 01:40:21;;;;;;;;;;;;;;;;;;5034636;28;20422;-89
2020/12/02 01:42:48;;;;;;;;;;;;;;;;;;5021621;28;20378;-89
2020/12/02 01:45:14;;;;;;;;;;;;;;;;;;5035300;28;20457;-88
2020/12/02 01:47:41;;;;;;;;;;;;;;;;;;5034113;28;20556;-88
2020/12/02 01:50:07;;;;;;;;;;;;;;;;;;5022637;28;20413;-89
2020/12/02 01:52:33;;;;;;;;;;;;;;;;;;5034356;28;20383;-90
2020/12/02 01:55:00;;;;;;;;;;;;;;;;;;5039956;28;20402;-90
2020/12/02 01:57:26;;;;;;;;;;;;;;;;;;5040766;28;20390;-90
2020/12/02 01:59:53;;;;;;;;;;;;;;;;;;5045321;28;20398;-88
2020/12/02 02:02:19;;;;;;;;;;;;;;;;;;5051210;28;20404;-89
2020/12/02 02:04:46;;;;;;;;;;;;;;;;;;5041332;28;20382;-89
2020/12/02 02:07:15;;;;;;;;;;;;;;;;;;5049437;28;20741;-89
2020/12/02 02:09:42;;;;;;;;;;;;;;;;;;5041923;28;20402;-89
2020/12/02 02:12:08;;;;;;;;;;;;;;;;;;5053365;28;20371;-87
2020/12/02 02:14:35;;;;;;;;;;;;;;;;;;5059290;28;20402;-88
2020/12/02 02:17:01;;;;;;;;;;;;;;;;;;5039320;28;20405;-85
2020/12/02 02:19:28;;;;;;;;;;;;;;;;;;5041017;28;20799;-85
2020/12/02 02:21:54;;;;;;;;;;;;;;;;;;5039279;28;20391;-85
2020/12/02 02:24:21;;;;;;;;;;;;;;;;;;5039003;28;20393;-85
2020/12/02 02:26:47;;;;;;;;;;;;;;;;;;5038452;28;20401;-85
2020/12/02 02:29:13;;;;;;;;;;;;;;;;;;5034170;28;20405;-85
2020/12/02 02:31:40;;;;;;;;;;;;;;;;;;5018926;28;20488;-89
2020/12/02 02:34:07;;;;;;;;;;;;;;;;;;5021505;28;20877;-87
2020/12/02 02:36:34;;;;;;;;;;;;;;;;;;5039672;28;20465;-88
2020/12/02 02:39:00;;;;;;;;;;;;;;;;;;5040703;28;20394;-88
2020/12/02 02:41:27;;;;;;;;;;;;;;;;;;5045589;28;20405;-88
2020/12/02 02:43:53;;;;;;;;;;;;;;;;;;5045654;28;20408;-85
2020/12/02 02:46:20;;;;;;;;;;;;;;;;;;5040906;28;20400;-87
2020/12/02 02:48:46;;;;;;;;;;;;;;;;;;5028112;28;20855;-86
2020/12/02 02:51:13;;;;;;;;;;;;;;;;;;5020933;28;20401;-87
2020/12/02 02:53:39;;;;;;;;;;;;;;;;;;5039298;28;20417;-86
2020/12/02 02:56:06;;;;;;;;;;;;;;;;;;5039413;28;20391;-87
2020/12/02 02:58:32;;;;;;;;;;;;;;;;;;5041145;28;20410;-88
2020/12/02 03:00:59;;;;;;;;;;;;;;;;;;5040249;28;20418;-86
2020/12/02 03:03:25;;;;;;;;;;;;;;;;;;5041947;28;20371;-85
2020/12/02 03:05:51;;;;;;;;;;;;;;;;;;5043982;28;20401;-86
2020/12/02 03:08:18;;;;;;;;;;;;;;;;;;5055179;28;20375;-88
2020/12/02 03:10:44;;;;;;;;;;;;;;;;;;5057764;28;20406;-88
2020/12/02 03:13:11;;;;;;;;;;;;;;;;;;5060680;28;20391;-88
2020/12/02 03:15:37;;;;;;;;;;;;;;;;;;5043983;28;20390;-87
2020/12/02 03:18:04;;;;;;;;;;;;;;;;;;5038858;28;20390;-86
2020/12/02 03:20:30;;;;;;;;;;;;;;;;;;5039716;28;20402;-87
2020/12/02 03:22:57;;;;;;;;;;;;;;;;;;5039569;28;20387;-86
2020/12/02 03:25:23;;;;;;;;;;;;;;;;;;5040225;28;20898;-86
2020/12/02 03:27:50;;;;;;;;;;;;;;;;;;5040815;28;20398;-87
2020/12/02 03:30:17;;;;;;;;;;;;;;;;;;5039821;28;20818;-86
2020/12/02 03:32:43;;;;;;;;;;;;;;;;;;5040928;28;20391;-86
2020/12/02 03:35:10;;;;;;;;;;;;;;;;;;5041141;28;20752;-87
2020/12/02 03:37:36;;;;;;;;;;;;;;;;;;5042878;28;20394;-86
2020/12/02 03:40:03;;;;;;;;;;;;;;;;;;5055141;28;20399;-88
2020/12/02 03:42:29;;;;;;;;;;;;;;;;;;5056395;28;20397;-86
2020/12/02 03:44:56;;;;;;;;;;;;;;;;;;5043483;28;20848;-85
2020/12/02 03:47:22;;;;;;;;;;;;;;;;;;5044886;28;20410;-86
2020/12/02 03:49:48;;;;;;;;;;;;;;;;;;5054917;28;20501;-85
2020/12/02 03:52:15;;;;;;;;;;;;;;;;;;5044417;28;20839;-85
2020/12/02 03:54:41;;;;;;;;;;;;;;;;;;5038136;28;20891;-85
2020/12/02 03:57:08;;;;;;;;;;;;;;;;;;5039535;28;20414;-85
2020/12/02 03:59:34;;;;;;;;;;;;;;;;;;5039384;28;20805;-85
2020/12/02 04:02:00;;;;;;;;;;;;;;;;;;5039700;28;20855;-86
2020/12/02 04:04:27;;;;;;;;;;;;;;;;;;5039597;28;20420;-86
2020/12/02 04:06:53;;;;;;;;;;;;;;;;;;5038715;28;20473;-86
2020/12/02 04:09:20;;;;;;;;;;;;;;;;;;5039538;28;20410;-85
2020/12/02 04:11:46;;;;;;;;;;;;;;;;;;5039567;28;20387;-85
2020/12/02 04:14:13;;;;;;;;;;;;;;;;;;5037978;28;20421;-86
2020/12/02 04:16:39;;;;;;;;;;;;;;;;;;5038863;28;20398;-86
2020/12/02 04:19:05;;;;;;;;;;;;;;;;;;5039243;28;20407;-86
2020/12/02 04:21:32;;;;;;;;;;;;;;;;;;5043415;28;20394;-85
2020/12/02 04:23:58;;;;;;;;;;;;;;;;;;5039277;28;20394;-86
2020/12/02 04:26:25;;;;;;;;;;;;;;;;;;5041139;28;20735;-85
2020/12/02 04:28:51;;;;;;;;;;;;;;;;;;5039076;28;20414;-84
2020/12/02 04:31:20;;;;;;;;;;;;;;;;;;5036475;28;20386;-84
2020/12/02 04:33:47;;;;;;;;;;;;;;;;;;5036856;28;20855;-84
2020/12/02 04:36:13;;;;;;;;;;;;;;;;;;5036664;28;20390;-84
2020/12/02 04:38:39;;;;;;;;;;;;;;;;;;5037129;28;20399;-84
2020/12/02 04:41:06;;;;;;;;;;;;;;;;;;5037983;28;20414;-85
2020/12/02 04:43:32;;;;;;;;;;;;;;;;;;5039661;28;20798;-84
2020/12/02 04:45:59;;;;;;;;;;;;;;;;;;5036406;28;20481;-85
2020/12/02 04:48:25;;;;;;;;;;;;;;;;;;5036388;28;20394;-84
2020/12/02 04:50:52;;;;;;;;;;;;;;;;;;5047885;28;20393;-85
2020/12/02 04:53:18;;;;;;;;;;;;;;;;;;5050208;28;20894;-85
2020/12/02 04:55:45;;;;;;;;;;;;;;;;;;5041796;28;20413;-85
2020/12/02 04:58:11;;;;;;;;;;;;;;;;;;5048504;28;20385;-83
2020/12/02 05:00:38;;;;;;;;;;;;;;;;;;5046103;28;20414;-85
2020/12/02 05:03:04;;;;;;;;;;;;;;;;;;5040570;28;20394;-85
2020/12/02 05:05:31;;;;;;;;;;;;;;;;;;5044383;28;20401;-87
2020/12/02 05:07:59;;;;;;;;;;;;;;;;;;5052633;28;20432;-84
2020/12/02 05:10:26;;;;;;;;;;;;;;;;;;5051672;28;20436;-85
2020/12/02 05:12:52;;;;;;;;;;;;;;;;;;5038984;28;20390;-87
2020/12/02 05:15:19;;;;;;;;;;;;;;;;;;5041769;28;20774;-86
2020/12/02 05:17:46;;;;;;;;;;;;;;;;;;5054333;28;20373;-88
2020/12/02 05:20:12;;;;;;;;;;;;;;;;;;5053790;28;20413;-85
2020/12/02 05:22:42;;;;;;;;;;;;;;;;;;5044795;28;20390;-85
2020/12/02 05:25:09;;;;;;;;;;;;;;;;;;5060441;28;20381;-86
2020/12/02 05:27:35;;;;;;;;;;;;;;;;;;5062232;28;20445;-86
2020/12/02 05:30:02;;;;;;;;;;;;;;;;;;5062861;28;20386;-86
2020/12/02 05:32:28;;;;;;;;;;;;;;;;;;5062705;28;20389;-86
2020/12/02 05:34:55;;;;;;;;;;;;;;;;;;5062586;28;20396;-86
2020/12/02 05:37:21;;;;;;;;;;;;;;;;;;5053741;28;20382;-86
2020/12/02 05:39:47;;;;;;;;;;;;;;;;;;5054960;28;20402;-86
2020/12/02 05:42:14;;;;;;;;;;;;;;;;;;5043475;28;20387;-87
2020/12/02 05:44:40;;;;;;;;;;;;;;;;;;5044840;28;20382;-87
2020/12/02 05:47:07;;;;;;;;;;;;;;;;;;5043406;28;20398;-86
2020/12/02 05:49:33;;;;;;;;;;;;;;;;;;5044728;28;20398;-87
2020/12/02 05:52:00;;;;;;;;;;;;;;;;;;5047381;28;20409;-87
2020/12/02 05:54:39;;;;;;;;;;;;;;;;;;5060009;28;20440;-88
2020/12/02 05:57:05;;;;;;;;;;;;;;;;;;5045132;28;20374;-87
2020/12/02 05:59:32;;;;;;;;;;;;;;;;;;5061811;28;20449;-88
2020/12/02 06:01:58;;;;;;;;;;;;;;;;;;5061699;28;20454;-87
2020/12/02 06:04:24;;;;;;;;;;;;;;;;;;5062036;28;20374;-87
2020/12/02 06:06:51;;;;;;;;;;;;;;;;;;5061571;28;20382;-87
2020/12/02 06:09:17;;;;;;;;;;;;;;;;;;5060045;28;20398;-91
2020/12/02 06:11:44;;;;;;;;;;;;;;;;;;5060270;28;20385;-87
2020/12/02 06:14:10;;;;;;;;;;;;;;;;;;5046834;28;20406;-90
2020/12/02 06:16:37;;;;;;;;;;;;;;;;;;5043014;28;20386;-89
2020/12/02 06:19:03;;;;;;;;;;;;;;;;;;5042118;28;20390;-90
2020/12/02 06:21:30;;;;;;;;;;;;;;;;;;5042855;28;20754;-89
2020/12/02 06:23:56;;;;;;;;;;;;;;;;;;5041132;28;20386;-90
2020/12/02 06:26:22;;;;;;;;;;;;;;;;;;5042811;28;20383;-88
2020/12/02 06:28:49;;;;;;;;;;;;;;;;;;5060325;28;20374;-89
2020/12/02 06:31:15;;;;;;;;;;;;;;;;;;5053466;28;20417;-90
2020/12/02 06:33:42;;;;;;;;;;;;;;;;;;5040100;28;20389;-86
2020/12/02 06:36:08;;;;;;;;;;;;;;;;;;5039439;28;20382;-89
2020/12/02 06:38:35;;;;;;;;;;;;;;;;;;5040295;28;20413;-89
2020/12/02 06:41:01;;;;;;;;;;;;;;;;;;5040142;28;20429;-89
2020/12/02 06:43:28;;;;;;;;;;;;;;;;;;5038892;28;20386;-90
2020/12/02 06:45:55;;;;;;;;;;;;;;;;;;5035484;28;20761;-88
2020/12/02 06:48:23;;;;;;;;;;;;;;;;;;5048106;28;20397;-88
2020/12/02 06:50:50;;;;;;;;;;;;;;;;;;5053484;28;20425;-89
2020/12/02 06:53:16;;;;;;;;;;;;;;;;;;5044066;28;20386;-91
2020/12/02 06:55:44;;;;;;;;;;;;;;;;;;5053686;28;20405;-89
2020/12/02 06:58:11;;;;;;;;;;;;;;;;;;5048925;28;20385;-91
2020/12/02 07:00:37;;;;;;;;;;;;;;;;;;5039735;28;20402;-89
2020/12/02 07:03:07;;;;;;;;;;;;;;;;;;5053753;28;20379;-89
2020/12/02 07:05:33;;;;;;;;;;;;;;;;;;5046041;28;20378;-87
2020/12/02 07:08:00;;;;;;;;;;;;;;;;;;5067028;28;20399;-89
2020/12/02 07:10:29;;;;;;;;;;;;;;;;;;5064364;28;20453;-85
2020/12/02 07:12:55;;;;;;;;;;;;;;;;;;5042661;28;20422;-89
2020/12/02 07:15:22;;;;;;;;;;;;;;;;;;5040494;28;20394;-88
2020/12/02 07:17:48;;;;;;;;;;;;;;;;;;5041322;28;20386;-89
2020/12/02 07:20:15;;;;;;;;;;;;;;;;;;5046718;28;20398;-85
2020/12/02 07:22:41;;;;;;;;;;;;;;;;;;5059762;28;20442;-87
2020/12/02 07:25:07;;;;;;;;;;;;;;;;;;5043917;28;20390;-88
2020/12/02 07:27:34;;;;;;;;;;;;;;;;;;5037405;28;20755;-89
2020/12/02 07:30:00;;;;;;;;;;;;;;;;;;5040078;28;20421;-89
2020/12/02 07:32:27;;;;;;;;;;;;;;;;;;5037602;28;20444;-89
2020/12/02 07:34:53;;;;;;;;;;;;;;;;;;5031398;28;20395;-88
2020/12/02 07:37:19;;;;;;;;;;;;;;;;;;5041760;28;20854;-88
2020/12/02 07:39:46;;;;;;;;;;;;;;;;;;5040809;28;20403;-87
2020/12/02 07:42:12;;;;;;;;;;;;;;;;;;5038844;28;20739;-87
2020/12/02 07:44:39;;;;;;;;;;;;;;;;;;5043539;28;20386;-87
2020/12/02 07:47:05;;;;;;;;;;;;;;;;;;5054077;28;20453;-88
2020/12/02 07:49:31;;;;;;;;;;;;;;;;;;5063669;28;20407;-89
2020/12/02 07:51:58;;;;;;;;;;;;;;;;;;5059323;28;20393;-88
2020/12/02 07:54:24;;;;;;;;;;;;;;;;;;5051774;28;20400;-88
2020/12/02 07:56:51;;;;;;;;;;;;;;;;;;5051640;28;20405;-86
2020/12/02 07:59:17;;;;;;;;;;;;;;;;;;5047439;28;20409;-88
2020/12/02 08:01:44;;;;;;;;;;;;;;;;;;5051055;28;20409;-87
2020/12/02 08:04:10;;;;;;;;;;;;;;;;;;5046954;28;20390;-85
2020/12/02 08:06:36;;;;;;;;;;;;;;;;;;5045913;28;20384;-89
2020/12/02 08:09:03;;;;;;;;;;;;;;;;;;5055009;28;20391;-86
2020/12/02 08:11:29;;;;;;;;;;;;;;;;;;5061588;28;20370;-85
2020/12/02 08:13:56;;;;;;;;;;;;;;;;;;5050366;28;20414;-87
2020/12/02 08:16:22;;;;;;;;;;;;;;;;;;5045399;28;20387;-87
2020/12/02 08:18:49;;;;;;;;;;;;;;;;;;5042545;28;20390;-86
2020/12/02 08:21:15;;;;;;;;;;;;;;;;;;5045700;28;20823;-87
2020/12/02 08:23:42;;;;;;;;;;;;;;;;;;5031760;28;20804;-87
2020/12/02 08:26:08;;;;;;;;;;;;;;;;;;5038231;28;20387;-88
2020/12/02 08:28:34;;;;;;;;;;;;;;;;;;5056917;28;20385;-87
2020/12/02 08:31:01;;;;;;;;;;;;;;;;;;5039414;28;20408;-87
2020/12/02 08:33:27;;;;;;;;;;;;;;;;;;5038316;28;20383;-87
2020/12/02 08:35:54;;;;;;;;;;;;;;;;;;5025538;28;20432;-87
2020/12/02 08:38:21;;;;;;;;;;;;;;;;;;5048154;28;20892;-87
2020/12/02 08:40:47;;;;;;;;;;;;;;;;;;5046549;28;20424;-86
2020/12/02 08:43:15;;;;;;;;;;;;;;;;;;5038275;28;20382;-86
2020/12/02 08:45:42;;;;;;;;;;;;;;;;;;5032898;28;20379;-87
2020/12/02 08:48:08;;;;;;;;;;;;;;;;;;5048530;28;20389;-84
2020/12/02 08:50:34;;;;;;;;;;;;;;;;;;5047920;28;20406;-86
2020/12/02 08:53:01;;;;;;;;;;;;;;;;;;5048536;28;20386;-86
2020/12/02 08:55:27;;;;;;;;;;;;;;;;;;5045755;28;20403;-85
2020/12/02 08:57:54;;;;;;;;;;;;;;;;;;5049928;28;20386;-86
2020/12/02 09:00:20;;;;;;;;;;;;;;;;;;5048881;28;20407;-86
2020/12/02 09:02:47;;;;;;;;;;;;;;;;;;5044134;28;20407;-86
2020/12/02 09:05:13;;;;;;;;;;;;;;;;;;5044935;28;20382;-87
2020/12/02 09:07:39;;;;;;;;;;;;;;;;;;5043860;28;20409;-87
2020/12/02 09:10:06;;;;;;;;;;;;;;;;;;5043443;28;20402;-86
2020/12/02 09:12:32;;;;;;;;;;;;;;;;;;5040569;28;20383;-87
2020/12/02 09:14:59;;;;;;;;;;;;;;;;;;5045883;28;20410;-88
2020/12/02 09:17:25;;;;;;;;;;;;;;;;;;5045657;28;20393;-87
2020/12/02 09:19:52;;;;;;;;;;;;;;;;;;5055378;28;20431;-86
2020/12/02 09:22:18;;;;;;;;;;;;;;;;;;5054955;28;20380;-85
2020/12/02 09:24:45;;;;;;;;;;;;;;;;;;5059627;28;20390;-83
2020/12/02 09:27:11;;;;;;;;;;;;;;;;;;5051075;28;20725;-87
2020/12/02 09:29:37;;;;;;;;;;;;;;;;;;5038157;28;20406;-87
2020/12/02 09:32:04;;;;;;;;;;;;;;;;;;5041781;28;20390;-88
2020/12/02 09:34:30;;;;;;;;;;;;;;;;;;5048829;28;20401;-87
2020/12/02 09:36:57;;;;;;;;;;;;;;;;;;5037733;28;20966;-87
2020/12/02 09:39:23;;;;;;;;;;;;;;;;;;5051932;28;20429;-84
2020/12/02 09:41:50;;;;;;;;;;;;;;;;;;5049763;28;20381;-86
2020/12/02 09:44:16;;;;;;;;;;;;;;;;;;5052355;28;20383;-87
2020/12/02 09:46:43;;;;;;;;;;;;;;;;;;5047018;28;20382;-88
2020/12/02 09:49:09;;;;;;;;;;;;;;;;;;5037420;28;20444;-88
2020/12/02 09:51:36;;;;;;;;;;;;;;;;;;5036853;28;20457;-88
2020/12/02 09:54:02;;;;;;;;;;;;;;;;;;5044637;28;20378;-90
2020/12/02 09:56:30;;;;;;;;;;;;;;;;;;5048911;28;20390;-85
2020/12/02 09:58:57;;;;;;;;;;;;;;;;;;5053808;28;20363;-88
2020/12/02 10:01:23;;;;;;;;;;;;;;;;;;5056161;28;20400;-84
2020/12/02 10:03:51;;;;;;;;;;;;;;;;;;5057987;28;20366;-86
2020/12/02 10:06:17;;;;;;;;;;;;;;;;;;5056657;28;20374;-85
2020/12/02 10:08:44;;;;;;;;;;;;;;;;;;5056125;28;20380;-85
2020/12/02 10:11:10;;;;;;;;;;;;;;;;;;5051511;28;20406;-86
2020/12/02 10:13:39;;;;;;;;;;;;;;;;;;5056878;28;20378;-88
2020/12/02 10:16:06;;;;;;;;;;;;;;;;;;5061955;28;20413;-87
2020/12/02 10:18:32;;;;;;;;;;;;;;;;;;5057309;28;20383;-86
2020/12/02 10:20:59;;;;;;;;;;;;;;;;;;5049518;28;20432;-88
2020/12/02 10:23:25;;;;;;;;;;;;;;;;;;5042593;28;20393;-88
2020/12/02 10:25:52;;;;;;;;;;;;;;;;;;5050816;28;20462;-87
2020/12/02 10:28:19;;;;;;;;;;;;;;;;;;5048538;28;20396;-88
2020/12/02 10:30:46;;;;;;;;;;;;;;;;;;5046629;28;20422;-86
2020/12/02 10:33:14;;;;;;;;;;;;;;;;;;5048131;28;20770;-87
2020/12/02 10:35:40;;;;;;;;;;;;;;;;;;5038089;28;20474;-87
2020/12/02 10:38:07;;;;;;;;;;;;;;;;;;5038444;28;20465;-86
2020/12/02 10:40:33;;;;;;;;;;;;;;;;;;5037985;28;20413;-87
2020/12/02 10:43:01;;;;;;;;;;;;;;;;;;5040222;28;20389;-87
2020/12/02 10:45:27;;;;;;;;;;;;;;;;;;5047635;28;20406;-85
2020/12/02 10:47:54;;;;;;;;;;;;;;;;;;5052053;28;20375;-87
2020/12/02 10:50:20;;;;;;;;;;;;;;;;;;5057741;28;20434;-86
2020/12/02 10:52:48;;;;;;;;;;;;;;;;;;5046935;28;20405;-85
2020/12/02 10:55:14;;;;;;;;;;;;;;;;;;5036811;28;20410;-85
2020/12/02 10:57:41;;;;;;;;;;;;;;;;;;5043840;28;20401;-83
2020/12/02 11:00:07;;;;;;;;;;;;;;;;;;5055016;28;20387;-85
2020/12/02 11:02:33;;;;;;;;;;;;;;;;;;5053130;28;20386;-86
2020/12/02 11:05:00;;;;;;;;;;;;;;;;;;5037853;28;20400;-84
2020/12/02 11:07:26;;;;;;;;;;;;;;;;;;5039545;28;20383;-87
2020/12/02 11:09:53;;;;;;;;;;;;;;;;;;5039348;28;20410;-85
2020/12/02 11:12:19;;;;;;;;;;;;;;;;;;5036364;28;20395;-87
2020/12/02 11:14:50;;;;;;;;;;;;;;;;;;5040434;28;20410;-85
2020/12/02 11:17:17;;;;;;;;;;;;;;;;;;5037477;28;20378;-86
2020/12/02 11:19:43;;;;;;;;;;;;;;;;;;5037940;28;20413;-86
2020/12/02 11:22:10;;;;;;;;;;;;;;;;;;5040450;28;20394;-84
2020/12/02 11:24:36;;;;;;;;;;;;;;;;;;5043354;28;20384;-87
2020/12/02 11:27:02;;;;;;;;;;;;;;;;;;5038399;28;20414;-86
2020/12/02 11:29:29;;;;;;;;;;;;;;;;;;5037001;28;20407;-87
2020/12/02 11:31:55;;;;;;;;;;;;;;;;;;5038421;28;20846;-86
2020/12/02 11:34:22;;;;;;;;;;;;;;;;;;5039937;28;20412;-85
2020/12/02 11:36:48;;;;;;;;;;;;;;;;;;5036766;28;20383;-87
2020/12/02 11:39:15;;;;;;;;;;;;;;;;;;5046721;28;20536;-88
2020/12/02 11:41:41;;;;;;;;;;;;;;;;;;5047792;28;20395;-86
2020/12/02 11:44:07;;;;;;;;;;;;;;;;;;5046030;28;20386;-88
2020/12/02 11:46:34;;;;;;;;;;;;;;;;;;5040995;28;20394;-87
2020/12/02 11:49:01;;;;;;;;;;;;;;;;;;5042875;28;20386;-88
2020/12/02 11:51:29;;;;;;;;;;;;;;;;;;5053489;28;20392;-88
2020/12/02 11:53:56;;;;;;;;;;;;;;;;;;5051455;28;20378;-86
2020/12/02 11:56:23;;;;;;;;;;;;;;;;;;5055116;28;20389;-88
2020/12/02 11:58:49;;;;;;;;;;;;;;;;;;5066003;28;20383;-86
2020/12/02 12:01:16;;;;;;;;;;;;;;;;;;5062916;28;20402;-87
2020/12/02 12:03:43;;;;;;;;;;;;;;;;;;5055672;28;20390;-88
2020/12/02 12:06:09;;;;;;;;;;;;;;;;;;5048227;28;20394;-86
2020/12/02 12:08:36;;;;;;;;;;;;;;;;;;5041319;28;20383;-88
2020/12/02 12:11:03;;;;;;;;;;;;;;;;;;5039983;28;20417;-89
2020/12/02 12:13:30;;;;;;;;;;;;;;;;;;5040865;28;20375;-88
2020/12/02 12:15:56;;;;;;;;;;;;;;;;;;5037829;28;20407;-83
2020/12/02 12:18:22;;;;;;;;;;;;;;;;;;5041274;28;20467;-87
2020/12/02 12:20:49;;;;;;;;;;;;;;;;;;5040838;28;20406;-87
2020/12/02 12:23:15;;;;;;;;;;;;;;;;;;5041009;28;20716;-89
2020/12/02 12:25:43;;;;;;;;;;;;;;;;;;5052106;28;20379;-89
2020/12/02 12:28:09;;;;;;;;;;;;;;;;;;5042654;28;20386;-89
2020/12/02 12:30:36;;;;;;;;;;;;;;;;;;5041510;28;20425;-89
2020/12/02 12:33:02;;;;;;;;;;;;;;;;;;5044838;28;20397;-88
2020/12/02 12:35:28;;;;;;;;;;;;;;;;;;5044282;28;20437;-88
2020/12/02 12:37:55;;;;;;;;;;;;;;;;;;5056313;28;20382;-86
2020/12/02 12:40:21;;;;;;;;;;;;;;;;;;5056655;28;20409;-86
2020/12/02 12:42:53;;;;;;;;;;;;;;;;;;5056370;28;20381;-83
2020/12/02 12:45:20;;;;;;;;;;;;;;;;;;5068702;28;20751;-83
2020/12/02 12:47:46;;;;;;;;;;;;;;;;;;5059957;28;20426;-84
2020/12/02 12:50:13;;;;;;;;;;;;;;;;;;5055992;28;20386;-87
2020/12/02 12:52:39;;;;;;;;;;;;;;;;;;5054507;28;20386;-82
2020/12/02 12:55:07;;;;;;;;;;;;;;;;;;5055657;28;21647;-83
2020/12/02 12:57:33;;;;;;;;;;;;;;;;;;5054073;28;20366;-85
2020/12/02 12:59:59;;;;;;;;;;;;;;;;;;5045658;28;20485;-87
2020/12/02 13:02:26;;;;;;;;;;;;;;;;;;5049435;28;20389;-86
2020/12/02 13:04:52;;;;;;;;;;;;;;;;;;5046740;28;20381;-84
2020/12/02 13:07:20;;;;;;;;;;;;;;;;;;5035900;28;20388;-84
2020/12/02 13:09:47;;;;;;;;;;;;;;;;;;5052693;28;20473;-86
2020/12/02 13:12:13;;;;;;;;;;;;;;;;;;5056151;28;20393;-85
2020/12/02 13:14:40;;;;;;;;;;;;;;;;;;5068987;28;20405;-85
2020/12/02 13:17:06;;;;;;;;;;;;;;;;;;5054111;28;20382;-83
2020/12/02 13:19:33;;;;;;;;;;;;;;;;;;5058608;28;20407;-83
2020/12/02 13:21:59;;;;;;;;;;;;;;;;;;5052119;28;20383;-85
2020/12/02 13:24:26;;;;;;;;;;;;;;;;;;5055402;28;20386;-85
2020/12/02 13:26:52;;;;;;;;;;;;;;;;;;5054480;28;20366;-85
2020/12/02 13:29:19;;;;;;;;;;;;;;;;;;5053764;28;20410;-83
2020/12/02 13:31:45;;;;;;;;;;;;;;;;;;5062064;28;20371;-86
2020/12/02 13:34:12;;;;;;;;;;;;;;;;;;5069490;28;20394;-86
2020/12/02 13:36:38;;;;;;;;;;;;;;;;;;5054410;28;20386;-86
2020/12/02 13:39:05;;;;;;;;;;;;;;;;;;5052254;28;20402;-86
2020/12/02 13:41:31;;;;;;;;;;;;;;;;;;5050200;28;20379;-87
2020/12/02 13:43:57;;;;;;;;;;;;;;;;;;5051678;28;20389;-87
2020/12/02 13:46:24;;;;;;;;;;;;;;;;;;5054571;28;20382;-84
2020/12/02 13:48:50;;;;;;;;;;;;;;;;;;5049406;28;20409;-86
2020/12/02 13:51:17;;;;;;;;;;;;;;;;;;5049619;28;20386;-83
2020/12/02 13:53:43;;;;;;;;;;;;;;;;;;5043548;28;20393;-83
2020/12/02 13:56:10;;;;;;;;;;;;;;;;;;5056677;28;20410;-82
2020/12/02 13:58:36;;;;;;;;;;;;;;;;;;5047688;28;20414;-82
2020/12/02 14:01:03;;;;;;;;;;;;;;;;;;5042126;28;20425;-85
2020/12/02 14:03:30;;;;;;;;;;;;;;;;;;5040878;28;20882;-86
2020/12/02 14:05:57;;;;;;;;;;;;;;;;;;5042080;28;20370;-85
2020/12/02 14:08:24;;;;;;;;;;;;;;;;;;5045562;28;20859;-86
2020/12/02 14:10:50;;;;;;;;;;;;;;;;;;5041716;28;20426;-85
2020/12/02 14:13:17;;;;;;;;;;;;;;;;;;5046984;28;20395;-84
2020/12/02 14:15:43;;;;;;;;;;;;;;;;;;5041112;28;20778;-86
2020/12/02 14:18:13;;;;;;;;;;;;;;;;;;5043731;28;20481;-87
2020/12/02 14:20:39;;;;;;;;;;;;;;;;;;5046103;28;20407;-84
2020/12/02 14:23:06;;;;;;;;;;;;;;;;;;5041374;28;20382;-84
2020/12/02 14:25:32;;;;;;;;;;;;;;;;;;5048020;28;20417;-84
2020/12/02 14:27:58;;;;;;;;;;;;;;;;;;5041472;28;20387;-83
2020/12/02 14:30:25;;;;;;;;;;;;;;;;;;5042789;28;20418;-84
2020/12/02 14:32:53;;;;;;;;;;;;;;;;;;5049566;28;20391;-87
2020/12/02 14:35:20;;;;;;;;;;;;;;;;;;5037926;28;20405;-87
2020/12/02 14:37:46;;;;;;;;;;;;;;;;;;5039185;28;20393;-84
2020/12/02 14:40:13;;;;;;;;;;;;;;;;;;5040123;28;20417;-87
2020/12/02 14:42:39;;;;;;;;;;;;;;;;;;5045669;28;20395;-87
2020/12/02 14:45:06;;;;;;;;;;;;;;;;;;5033060;28;20383;-89
2020/12/02 14:47:32;;;;;;;;;;;;;;;;;;5040838;28;20400;-87
2020/12/02 14:49:58;;;;;;;;;;;;;;;;;;5042240;28;20409;-83
2020/12/02 14:52:28;;;;;;;;;;;;;;;;;;5045201;28;20393;-86
2020/12/02 14:54:55;;;;;;;;;;;;;;;;;;5041917;28;20410;-86
2020/12/02 14:57:21;;;;;;;;;;;;;;;;;;5051468;28;20388;-87
2020/12/02 14:59:47;;;;;;;;;;;;;;;;;;5022759;28;20475;-88
2020/12/02 15:02:14;;;;;;;;;;;;;;;;;;5040724;28;20417;-87
2020/12/02 15:04:40;;;;;;;;;;;;;;;;;;5044707;28;20449;-86
2020/12/02 15:07:07;;;;;;;;;;;;;;;;;;5044531;28;20383;-85
2020/12/02 15:09:36;;;;;;;;;;;;;;;;;;5031351;28;20600;-88
2020/12/02 15:12:03;;;;;;;;;;;;;;;;;;5041370;28;20413;-86
2020/12/02 15:14:29;;;;;;;;;;;;;;;;;;5039754;28;20390;-87
2020/12/02 15:16:55;;;;;;;;;;;;;;;;;;5050451;28;20390;-87
2020/12/02 15:19:22;;;;;;;;;;;;;;;;;;5047814;28;20398;-88
2020/12/02 15:21:48;;;;;;;;;;;;;;;;;;5044290;28;20603;-87
2020/12/02 15:24:15;;;;;;;;;;;;;;;;;;5041716;28;20388;-86
2020/12/02 15:26:41;;;;;;;;;;;;;;;;;;5042343;28;20393;-87
2020/12/02 15:29:08;;;;;;;;;;;;;;;;;;5040573;28;20393;-87
2020/12/02 15:31:36;;;;;;;;;;;;;;;;;;5041240;28;20736;-87
2020/12/02 15:34:02;;;;;;;;;;;;;;;;;;5042644;28;20454;-87
2020/12/02 15:36:29;;;;;;;;;;;;;;;;;;5042537;28;20414;-87
2020/12/02 15:38:55;;;;;;;;;;;;;;;;;;5057790;28;20381;-85
2020/12/02 15:41:22;;;;;;;;;;;;;;;;;;5058473;28;20384;-87
2020/12/02 15:43:48;;;;;;;;;;;;;;;;;;5051871;28;20473;-88
2020/12/02 15:46:15;;;;;;;;;;;;;;;;;;5042075;28;20398;-88
2020/12/02 15:48:41;;;;;;;;;;;;;;;;;;5041594;28;20386;-87
2020/12/02 15:51:07;;;;;;;;;;;;;;;;;;5052325;28;20392;-86
2020/12/02 15:53:34;;;;;;;;;;;;;;;;;;5046336;28;20370;-84
2020/12/02 15:56:03;;;;;;;;;;;;;;;;;;5057300;28;20392;-81
2020/12/02 15:58:30;;;;;;;;;;;;;;;;;;5058181;28;20386;-86
2020/12/02 16:00:56;;;;;;;;;;;;;;;;;;5056315;28;20415;-87
2020/12/02 16:03:22;;;;;;;;;;;;;;;;;;5043798;28;20386;-85
2020/12/02 16:05:49;;;;;;;;;;;;;;;;;;5051741;28;20395;-82
2020/12/02 16:08:15;;;;;;;;;;;;;;;;;;5024725;28;20382;-87
2020/12/02 16:10:42;;;;;;;;;;;;;;;;;;5043981;28;20411;-85
2020/12/02 16:13:08;;;;;;;;;;;;;;;;;;5041660;28;20394;-88
2020/12/02 16:15:34;;;;;;;;;;;;;;;;;;5043904;28;20407;-88
2020/12/02 16:18:01;;;;;;;;;;;;;;;;;;5044450;28;20388;-87
2020/12/02 16:20:28;;;;;;;;;;;;;;;;;;5050731;28;20418;-86
2020/12/02 16:22:54;;;;;;;;;;;;;;;;;;5054184;28;20364;-87
2020/12/02 16:25:20;;;;;;;;;;;;;;;;;;5057239;28;20359;-86
2020/12/02 16:27:47;;;;;;;;;;;;;;;;;;5061994;28;20395;-85
2020/12/02 16:30:13;;;;;;;;;;;;;;;;;;5053560;28;20404;-84
2020/12/02 16:32:40;;;;;;;;;;;;;;;;;;5057309;28;20391;-86
2020/12/02 16:35:08;;;;;;;;;;;;;;;;;;5056485;28;20414;-86
2020/12/02 16:43:05;;;;;;;;;;;;;;;;;;5048571;28;20554;-82
2020/12/02 16:45:32;;;;;;;;;;;;;;;;;;5049980;28;20378;-83